Time;durP1;ratioP1;P1;durP2;ratioP2;P2;SDS_P1;SDS_P2;PMS_P1;PMS_P2;Temp;Humidity;BMP_temperature;BMP_pressure;BME280_temperature;BME280_humidity;BME280_pressure;Samples;Min_cycle;Max_cycle;Signal;HPM_P1;HPM_P2
2023/07/24 00:00:59;;;;;;;0.28;0.28;;;;;;;;;;10151990;28;22050;-72
2023/07/24 00:06:00;;;;;;;1.80;0.20;;;;;;;;;;10142761;28;21714;-71
2023/07/24 00:11:04;;;;;;;0.20;0.20;;;;;;;;;;10119718;28;20224;-74
2023/07/24 00:16:09;;;;;;;0.30;0.20;;;;;;;;;;10120905;28;20580;-74
2023/07/24 00:21:10;;;;;;;1.65;0.20;;;;;;;;;;10120972;28;20222;-74
2023/07/24 00:26:11;;;;;;;0.80;0.22;;;;;;;;;;10140055;28;20339;-74
2023/07/24 00:31:12;;;;;;;0.10;0.10;;;;;;;;;;10144693;28;20223;-75
2023/07/24 00:36:13;;;;;;;0.30;0.30;;;;;;;;;;10128547;28;20219;-73
2023/07/24 00:41:14;;;;;;;0.20;0.20;;;;;;;;;;10119188;28;20418;-74
2023/07/24 00:46:15;;;;;;;0.10;0.10;;;;;;;;;;10148577;28;20266;-75
2023/07/24 00:51:17;;;;;;;0.20;0.20;;;;;;;;;;10125233;28;20305;-72
2023/07/24 00:56:18;;;;;;;0.20;0.20;;;;;;;;;;10132154;28;20227;-74
2023/07/24 01:01:19;;;;;;;1.00;0.20;;;;;;;;;;10121081;28;20434;-73
2023/07/24 01:06:20;;;;;;;0.20;0.20;;;;;;;;;;10149423;28;20652;-74
2023/07/24 01:11:29;;;;;;;0.20;0.20;;;;;;;;;;10145418;28;20641;-73
2023/07/24 01:16:42;;;;;;;0.32;0.17;;;;;;;;;;10144330;28;20325;-75
2023/07/24 01:21:53;;;;;;;0.10;0.10;;;;;;;;;;10141248;28;21036;-74
2023/07/24 01:26:54;;;;;;;0.20;0.20;;;;;;;;;;10137555;28;20525;-75
2023/07/24 01:31:55;;;;;;;0.20;0.20;;;;;;;;;;10137407;28;20491;-74
2023/07/24 01:36:56;;;;;;;1.08;0.20;;;;;;;;;;10140537;28;20823;-75
2023/07/24 01:41:58;;;;;;;0.15;0.15;;;;;;;;;;10143197;28;20308;-73
2023/07/24 01:46:59;;;;;;;0.10;0.10;;;;;;;;;;10150657;28;20802;-74
2023/07/24 01:52:00;;;;;;;0.20;0.20;;;;;;;;;;10140796;28;20556;-74
2023/07/24 01:57:01;;;;;;;0.10;0.10;;;;;;;;;;10144170;28;21192;-74
2023/07/24 02:02:02;;;;;;;0.20;0.20;;;;;;;;;;10153229;28;20354;-74
2023/07/24 02:07:03;;;;;;;0.38;0.20;;;;;;;;;;10137459;28;20220;-73
2023/07/24 02:12:05;;;;;;;0.10;0.10;;;;;;;;;;10140362;28;20395;-74
2023/07/24 02:17:06;;;;;;;0.10;0.10;;;;;;;;;;10140014;28;20230;-75
2023/07/24 02:22:07;;;;;;;0.20;0.20;;;;;;;;;;10114369;28;20458;-74
2023/07/24 02:27:13;;;;;;;0.10;0.10;;;;;;;;;;10111233;28;20220;-73
2023/07/24 02:32:14;;;;;;;0.10;0.10;;;;;;;;;;10119780;28;21207;-75
2023/07/24 02:37:15;;;;;;;0.15;0.15;;;;;;;;;;10141038;28;22172;-72
2023/07/24 02:42:16;;;;;;;0.20;0.20;;;;;;;;;;10142207;28;20224;-74
2023/07/24 02:47:19;;;;;;;0.20;0.20;;;;;;;;;;10146235;28;21020;-74
2023/07/24 02:52:20;;;;;;;0.20;0.20;;;;;;;;;;10130501;28;20317;-75
2023/07/24 02:57:21;;;;;;;0.10;0.10;;;;;;;;;;10131608;28;20224;-73
2023/07/24 03:02:22;;;;;;;0.20;0.20;;;;;;;;;;10132312;28;20574;-74
2023/07/24 03:07:23;;;;;;;0.20;0.20;;;;;;;;;;10146792;28;20856;-74
2023/07/24 03:12:24;;;;;;;0.20;0.20;;;;;;;;;;10145737;28;20347;-71
2023/07/24 03:17:25;;;;;;;2.30;0.20;;;;;;;;;;10131846;28;20228;-74
2023/07/24 03:22:26;;;;;;;0.20;0.20;;;;;;;;;;10128941;28;22420;-74
2023/07/24 03:27:27;;;;;;;0.20;0.20;;;;;;;;;;10144135;28;20999;-76
2023/07/24 03:32:28;;;;;;;0.20;0.20;;;;;;;;;;10122309;28;20409;-75
2023/07/24 03:37:29;;;;;;;0.10;0.10;;;;;;;;;;10140814;28;22330;-75
2023/07/24 03:42:31;;;;;;;0.30;0.20;;;;;;;;;;10142879;28;20998;-76
2023/07/24 03:47:32;;;;;;;0.20;0.20;;;;;;;;;;10144522;28;21633;-75
2023/07/24 03:52:33;;;;;;;0.10;0.10;;;;;;;;;;10141588;28;20242;-75
2023/07/24 03:57:34;;;;;;;0.20;0.20;;;;;;;;;;10116647;28;21906;-75
2023/07/24 04:02:35;;;;;;;0.20;0.20;;;;;;;;;;10133567;28;20208;-75
2023/07/24 04:07:37;;;;;;;0.10;0.10;;;;;;;;;;10121948;28;21347;-74
2023/07/24 04:12:38;;;;;;;0.20;0.20;;;;;;;;;;10141362;28;20241;-75
2023/07/24 04:17:40;;;;;;;0.50;0.20;;;;;;;;;;10115469;28;20327;-75
2023/07/24 04:22:41;;;;;;;0.30;0.30;;;;;;;;;;10139599;28;21072;-75
2023/07/24 04:27:42;;;;;;;0.35;0.20;;;;;;;;;;10142924;28;20227;-75
2023/07/24 04:32:43;;;;;;;1.00;0.20;;;;;;;;;;10130787;28;20215;-73
2023/07/24 04:37:44;;;;;;;0.20;0.20;;;;;;;;;;10125083;28;20926;-75
2023/07/24 04:42:45;;;;;;;0.20;0.20;;;;;;;;;;10147082;28;20819;-75
2023/07/24 04:47:46;;;;;;;0.30;0.30;;;;;;;;;;10143793;28;21172;-74
2023/07/24 04:52:47;;;;;;;0.17;0.17;;;;;;;;;;10122338;28;22124;-75
2023/07/24 04:57:48;;;;;;;0.20;0.20;;;;;;;;;;10130093;28;20598;-73
2023/07/24 05:02:50;;;;;;;0.43;0.20;;;;;;;;;;10128074;28;20212;-74
2023/07/24 05:07:51;;;;;;;0.22;0.22;;;;;;;;;;10137333;28;20211;-76
2023/07/24 05:12:52;;;;;;;0.30;0.30;;;;;;;;;;10104464;28;20398;-75
2023/07/24 05:17:53;;;;;;;0.47;0.20;;;;;;;;;;10112795;28;20451;-75
2023/07/24 05:22:54;;;;;;;0.38;0.30;;;;;;;;;;10145255;28;20251;-76
2023/07/24 05:27:55;;;;;;;0.20;0.20;;;;;;;;;;10135507;28;20537;-70
2023/07/24 05:32:56;;;;;;;0.40;0.20;;;;;;;;;;10135992;28;21514;-75
2023/07/24 05:37:57;;;;;;;0.20;0.20;;;;;;;;;;10121921;28;21121;-74
2023/07/24 05:42:58;;;;;;;0.30;0.30;;;;;;;;;;10124739;28;20970;-74
2023/07/24 05:47:59;;;;;;;1.20;0.20;;;;;;;;;;10143493;28;20706;-74
2023/07/24 05:53:00;;;;;;;3.40;0.30;;;;;;;;;;10132683;28;20827;-74
2023/07/24 05:58:01;;;;;;;0.43;0.40;;;;;;;;;;10140069;28;20227;-75
2023/07/24 06:03:03;;;;;;;1.55;0.47;;;;;;;;;;10143025;28;20264;-75
2023/07/24 06:08:04;;;;;;;0.22;0.22;;;;;;;;;;10123533;28;20245;-75
2023/07/24 06:13:05;;;;;;;0.30;0.30;;;;;;;;;;10141953;28;20335;-75
2023/07/24 06:18:06;;;;;;;0.40;0.40;;;;;;;;;;10141131;28;21146;-74
2023/07/24 06:23:07;;;;;;;0.30;0.30;;;;;;;;;;10114249;28;20715;-75
2023/07/24 06:28:08;;;;;;;0.30;0.30;;;;;;;;;;10127169;28;21326;-74
2023/07/24 06:33:09;;;;;;;0.40;0.40;;;;;;;;;;10144404;28;20230;-74
2023/07/24 06:38:10;;;;;;;0.30;0.30;;;;;;;;;;10124043;28;20736;-75
2023/07/24 06:43:11;;;;;;;0.30;0.30;;;;;;;;;;10157655;28;20218;-75
2023/07/24 06:48:12;;;;;;;0.40;0.40;;;;;;;;;;10146412;28;23026;-77
2023/07/24 06:53:13;;;;;;;0.93;0.40;;;;;;;;;;10137780;28;20263;-75
2023/07/24 06:58:14;;;;;;;0.40;0.40;;;;;;;;;;10142757;28;20223;-74
2023/07/24 07:03:16;;;;;;;1.40;0.40;;;;;;;;;;10127881;28;20306;-74
2023/07/24 07:08:17;;;;;;;0.95;0.40;;;;;;;;;;10136052;28;20413;-75
2023/07/24 07:13:18;;;;;;;0.38;0.38;;;;;;;;;;10133879;28;21440;-75
2023/07/24 07:18:19;;;;;;;0.50;0.50;;;;;;;;;;10142989;28;20229;-74
2023/07/24 07:23:20;;;;;;;0.35;0.35;;;;;;;;;;10150587;28;20853;-75
2023/07/24 07:28:21;;;;;;;0.50;0.50;;;;;;;;;;10122586;28;20224;-75
2023/07/24 07:33:23;;;;;;;0.50;0.50;;;;;;;;;;10121599;28;20638;-75
2023/07/24 07:38:24;;;;;;;1.10;0.40;;;;;;;;;;10149024;28;20765;-75
2023/07/24 07:43:25;;;;;;;0.90;0.60;;;;;;;;;;10147076;28;20216;-76
2023/07/24 07:48:26;;;;;;;1.10;0.50;;;;;;;;;;10115662;28;22463;-76
2023/07/24 07:53:27;;;;;;;2.28;0.47;;;;;;;;;;10145285;28;20432;-75
2023/07/24 07:58:28;;;;;;;0.40;0.40;;;;;;;;;;10150713;28;20840;-75
2023/07/24 08:03:29;;;;;;;0.50;0.50;;;;;;;;;;10148467;28;20473;-75
2023/07/24 08:08:30;;;;;;;0.60;0.57;;;;;;;;;;10139969;28;20219;-74
2023/07/24 08:13:32;;;;;;;0.73;0.73;;;;;;;;;;10128731;28;20227;-74
2023/07/24 08:18:33;;;;;;;0.60;0.60;;;;;;;;;;10134219;28;20272;-75
2023/07/24 08:23:34;;;;;;;0.40;0.40;;;;;;;;;;10135888;28;21146;-75
2023/07/24 08:28:35;;;;;;;0.43;0.43;;;;;;;;;;10124657;28;20527;-76
2023/07/24 08:33:36;;;;;;;0.47;0.47;;;;;;;;;;10133820;28;20277;-74
2023/07/24 08:38:37;;;;;;;1.58;0.50;;;;;;;;;;10137093;28;21713;-76
2023/07/24 08:43:39;;;;;;;0.30;0.30;;;;;;;;;;10143907;28;20308;-72
2023/07/24 08:48:41;;;;;;;0.57;0.57;;;;;;;;;;10138863;28;20550;-75
2023/07/24 08:53:43;;;;;;;0.50;0.50;;;;;;;;;;10126297;28;20211;-75
2023/07/24 08:58:44;;;;;;;0.63;0.60;;;;;;;;;;10135087;28;21128;-75
2023/07/24 09:03:45;;;;;;;1.40;0.65;;;;;;;;;;10140582;28;20538;-76
2023/07/24 09:08:46;;;;;;;0.52;0.52;;;;;;;;;;10126359;28;20286;-74
2023/07/24 09:13:49;;;;;;;0.60;0.60;;;;;;;;;;10126471;28;21669;-74
2023/07/24 09:18:51;;;;;;;0.85;0.57;;;;;;;;;;10131955;28;21162;-74
2023/07/24 09:23:52;;;;;;;0.88;0.52;;;;;;;;;;10139114;28;20447;-75
2023/07/24 09:28:54;;;;;;;0.60;0.60;;;;;;;;;;10146700;28;20293;-78
2023/07/24 09:33:55;;;;;;;0.70;0.70;;;;;;;;;;10149478;28;21888;-77
2023/07/24 09:39:02;;;;;;;0.80;0.80;;;;;;;;;;10148782;28;20421;-75
2023/07/24 09:44:04;;;;;;;1.15;0.90;;;;;;;;;;10148485;28;20792;-76
2023/07/24 09:49:05;;;;;;;4.53;0.90;;;;;;;;;;10137469;28;20216;-75
2023/07/24 09:54:26;;;;;;;0.80;0.80;;;;;;;;;;10152609;28;21160;-75
2023/07/24 09:59:29;;;;;;;0.85;0.82;;;;;;;;;;10124112;28;20234;-75
2023/07/24 10:04:32;;;;;;;0.98;0.88;;;;;;;;;;10146179;28;20224;-76
2023/07/24 10:09:34;;;;;;;3.03;0.95;;;;;;;;;;10113736;28;20242;-75
2023/07/24 10:14:35;;;;;;;1.40;0.90;;;;;;;;;;10133792;28;22005;-75
2023/07/24 10:19:39;;;;;;;0.65;0.52;;;;;;;;;;10145723;28;20751;-78
2023/07/24 10:24:40;;;;;;;2.17;0.80;;;;;;;;;;10135226;28;20367;-75
2023/07/24 10:29:43;;;;;;;1.08;0.60;;;;;;;;;;10140203;28;20207;-74
2023/07/24 10:34:44;;;;;;;0.45;0.45;;;;;;;;;;10155200;28;21410;-74
2023/07/24 10:39:45;;;;;;;1.13;0.43;;;;;;;;;;10140921;28;20223;-75
2023/07/24 10:44:47;;;;;;;0.28;0.28;;;;;;;;;;10143427;28;20776;-75
2023/07/24 10:49:51;;;;;;;0.50;0.50;;;;;;;;;;10129687;28;20837;-75
2023/07/24 10:54:52;;;;;;;0.65;0.65;;;;;;;;;;10107893;28;20350;-76
2023/07/24 10:59:53;;;;;;;0.50;0.50;;;;;;;;;;10123642;28;20219;-76
2023/07/24 11:04:54;;;;;;;0.40;0.40;;;;;;;;;;10147559;28;20250;-77
2023/07/24 11:09:55;;;;;;;2.60;0.40;;;;;;;;;;10140794;28;20711;-76
2023/07/24 11:14:58;;;;;;;0.40;0.40;;;;;;;;;;10149524;28;20607;-76
2023/07/24 11:20:13;;;;;;;0.60;0.60;;;;;;;;;;10141562;28;20309;-75
2023/07/24 11:25:15;;;;;;;0.40;0.40;;;;;;;;;;10133758;28;20223;-77
2023/07/24 11:30:22;;;;;;;0.57;0.50;;;;;;;;;;10147371;28;20223;-75
2023/07/24 11:35:25;;;;;;;1.05;0.55;;;;;;;;;;10152728;28;20212;-75
2023/07/24 11:40:44;;;;;;;1.10;0.60;;;;;;;;;;10119070;28;20212;-75
2023/07/24 11:45:51;;;;;;;0.50;0.50;;;;;;;;;;10146768;28;21025;-75
2023/07/24 11:50:54;;;;;;;1.73;0.60;;;;;;;;;;10136258;28;20328;-73
2023/07/24 11:55:56;;;;;;;0.50;0.50;;;;;;;;;;10143851;28;20757;-75
2023/07/24 12:00:57;;;;;;;1.58;0.60;;;;;;;;;;10128123;28;20765;-75
2023/07/24 12:05:59;;;;;;;0.70;0.70;;;;;;;;;;10147224;28;20219;-75
2023/07/24 12:11:00;;;;;;;0.52;0.50;;;;;;;;;;10136506;28;21812;-76
2023/07/24 12:16:01;;;;;;;0.40;0.40;;;;;;;;;;10127012;28;20232;-75
2023/07/24 12:21:02;;;;;;;0.68;0.68;;;;;;;;;;10133636;28;21762;-76
2023/07/24 12:26:03;;;;;;;0.40;0.40;;;;;;;;;;10124915;28;20285;-75
2023/07/24 12:31:05;;;;;;;0.60;0.60;;;;;;;;;;10121511;28;20212;-75
2023/07/24 12:36:06;;;;;;;0.75;0.70;;;;;;;;;;10120513;28;21345;-75
2023/07/24 12:41:07;;;;;;;0.50;0.50;;;;;;;;;;10122708;28;20242;-75
2023/07/24 12:46:08;;;;;;;0.63;0.63;;;;;;;;;;10144718;28;20721;-75
2023/07/24 12:51:09;;;;;;;0.40;0.40;;;;;;;;;;10134234;28;20223;-75
2023/07/24 12:56:10;;;;;;;0.60;0.50;;;;;;;;;;10142942;28;20479;-75
2023/07/24 13:01:11;;;;;;;0.60;0.57;;;;;;;;;;10132818;28;20935;-75
2023/07/24 13:06:12;;;;;;;0.70;0.70;;;;;;;;;;10130150;28;20218;-75
2023/07/24 13:11:13;;;;;;;0.63;0.63;;;;;;;;;;10134779;28;20324;-74
2023/07/24 13:16:15;;;;;;;0.60;0.60;;;;;;;;;;10151863;28;20599;-76
2023/07/24 13:21:16;;;;;;;0.55;0.55;;;;;;;;;;10149554;28;21275;-75
2023/07/24 13:26:17;;;;;;;0.50;0.50;;;;;;;;;;10140031;28;20646;-73
2023/07/24 13:31:19;;;;;;;0.73;0.60;;;;;;;;;;10143458;28;20226;-75
2023/07/24 13:36:20;;;;;;;0.60;0.60;;;;;;;;;;10138460;28;20480;-76
2023/07/24 13:41:21;;;;;;;0.50;0.50;;;;;;;;;;10131519;28;20583;-80
2023/07/24 13:46:22;;;;;;;0.70;0.70;;;;;;;;;;10139914;28;20683;-81
2023/07/24 13:51:23;;;;;;;0.90;0.90;;;;;;;;;;10163525;28;20216;-79
2023/07/24 13:56:26;;;;;;;0.70;0.70;;;;;;;;;;10173323;28;20219;-79
2023/07/24 14:01:27;;;;;;;0.88;0.60;;;;;;;;;;10145794;28;20216;-80
2023/07/24 14:06:29;;;;;;;0.93;0.93;;;;;;;;;;10161277;28;20276;-80
2023/07/24 14:11:30;;;;;;;1.05;0.80;;;;;;;;;;10131290;28;21198;-79
2023/07/24 14:16:31;;;;;;;3.75;1.05;;;;;;;;;;10142392;28;20223;-80
2023/07/24 14:21:32;;;;;;;1.10;1.10;;;;;;;;;;10149577;28;20255;-79
2023/07/24 14:26:33;;;;;;;0.93;0.93;;;;;;;;;;10131474;28;20356;-81
2023/07/24 14:31:34;;;;;;;1.25;1.15;;;;;;;;;;10146412;28;20211;-80
2023/07/24 14:36:35;;;;;;;0.93;0.93;;;;;;;;;;10123782;28;21091;-78
2023/07/24 14:41:36;;;;;;;0.90;0.90;;;;;;;;;;10142128;28;20782;-82
2023/07/24 14:46:37;;;;;;;1.00;1.00;;;;;;;;;;10147623;28;20601;-81
2023/07/24 14:51:38;;;;;;;0.80;0.80;;;;;;;;;;10149993;28;21275;-79
2023/07/24 14:56:40;;;;;;;1.05;1.05;;;;;;;;;;10162420;28;20580;-81
2023/07/24 15:01:41;;;;;;;1.20;1.10;;;;;;;;;;10118336;28;20933;-80
2023/07/24 15:06:42;;;;;;;1.00;0.93;;;;;;;;;;10140084;28;20619;-81
2023/07/24 15:11:43;;;;;;;1.00;1.00;;;;;;;;;;10147556;28;21334;-81
2023/07/24 15:16:45;;;;;;;1.75;0.70;;;;;;;;;;10148291;28;20815;-82
2023/07/24 15:21:46;;;;;;;0.85;0.82;;;;;;;;;;10152332;28;20208;-82
2023/07/24 15:26:47;;;;;;;0.88;0.88;;;;;;;;;;10137011;28;20227;-80
2023/07/24 15:31:48;;;;;;;2.30;1.00;;;;;;;;;;10166323;28;21404;-83
2023/07/24 15:36:49;;;;;;;2.17;1.17;;;;;;;;;;10154503;28;20691;-80
2023/07/24 15:41:50;;;;;;;3.45;1.05;;;;;;;;;;10146632;28;20208;-81
2023/07/24 15:46:51;;;;;;;1.27;1.02;;;;;;;;;;10160932;28;20942;-81
2023/07/24 15:51:52;;;;;;;2.15;0.80;;;;;;;;;;10217030;28;20350;-78
2023/07/24 15:56:53;;;;;;;0.40;0.40;;;;;;;;;;10212977;28;21049;-79
2023/07/24 16:01:55;;;;;;;2.60;1.02;;;;;;;;;;10232267;28;20215;-80
2023/07/24 16:06:56;;;;;;;1.25;0.70;;;;;;;;;;10219037;28;20442;-80
2023/07/24 16:11:57;;;;;;;1.38;1.20;;;;;;;;;;10191338;28;20819;-81
2023/07/24 16:16:58;;;;;;;1.02;1.02;;;;;;;;;;10192233;28;20223;-81
2023/07/24 16:21:59;;;;;;;1.58;0.70;;;;;;;;;;10178151;28;20737;-80
2023/07/24 16:27:03;;;;;;;1.73;0.82;;;;;;;;;;10152745;28;20232;-78
2023/07/24 16:32:05;;;;;;;0.25;0.20;;;;;;;;;;10125287;28;20483;-80
2023/07/24 16:37:06;;;;;;;0.13;0.13;;;;;;;;;;10144985;28;20223;-82
2023/07/24 16:42:08;;;;;;;0.20;0.20;;;;;;;;;;10134241;28;21681;-82
2023/07/24 16:47:09;;;;;;;2.17;0.30;;;;;;;;;;10148281;28;20542;-81
2023/07/24 16:52:10;;;;;;;0.17;0.17;;;;;;;;;;10137415;28;20211;-77
2023/07/24 16:57:12;;;;;;;0.30;0.30;;;;;;;;;;10148185;28;20597;-79
2023/07/24 17:02:13;;;;;;;0.15;0.15;;;;;;;;;;10184226;28;20869;-80
2023/07/24 17:07:14;;;;;;;0.22;0.20;;;;;;;;;;10175828;28;20977;-77
2023/07/24 17:12:15;;;;;;;0.20;0.20;;;;;;;;;;10176423;28;21065;-78
2023/07/24 17:17:17;;;;;;;0.10;0.10;;;;;;;;;;10179359;28;20211;-78
2023/07/24 17:22:18;;;;;;;0.20;0.20;;;;;;;;;;10210881;28;20623;-77
2023/07/24 17:27:19;;;;;;;0.20;0.20;;;;;;;;;;10205777;28;20226;-75
2023/07/24 17:32:21;;;;;;;0.22;0.20;;;;;;;;;;10199918;28;20285;-77
2023/07/24 17:37:22;;;;;;;0.10;0.10;;;;;;;;;;10192957;28;20313;-77
2023/07/24 17:42:23;;;;;;;0.20;0.20;;;;;;;;;;10193588;28;20385;-74
2023/07/24 17:47:24;;;;;;;0.20;0.20;;;;;;;;;;10190193;28;20353;-75
2023/07/24 17:52:26;;;;;;;0.25;0.25;;;;;;;;;;10200964;28;20216;-77
2023/07/24 17:57:27;;;;;;;0.10;0.10;;;;;;;;;;10186834;28;20226;-75
2023/07/24 18:02:28;;;;;;;0.20;0.20;;;;;;;;;;10187381;28;20238;-78
2023/07/24 18:07:29;;;;;;;0.10;0.10;;;;;;;;;;10161735;28;21361;-76
2023/07/24 18:12:30;;;;;;;0.22;0.22;;;;;;;;;;10156692;28;20876;-75
2023/07/24 18:17:31;;;;;;;0.15;0.15;;;;;;;;;;10160699;28;20258;-77
2023/07/24 18:22:32;;;;;;;0.10;0.10;;;;;;;;;;10169504;28;20885;-75
2023/07/24 18:27:34;;;;;;;0.63;0.20;;;;;;;;;;10180292;28;20251;-79
2023/07/24 18:32:35;;;;;;;0.20;0.20;;;;;;;;;;10162493;28;20314;-79
2023/07/24 18:37:36;;;;;;;0.10;0.10;;;;;;;;;;10161907;28;20715;-77
2023/07/24 18:42:37;;;;;;;1.67;0.43;;;;;;;;;;10163412;28;20508;-79
2023/07/24 18:47:39;;;;;;;0.20;0.20;;;;;;;;;;10148346;28;20225;-82
2023/07/24 18:52:40;;;;;;;0.75;0.30;;;;;;;;;;10121964;28;20215;-80
2023/07/24 18:57:41;;;;;;;0.17;0.17;;;;;;;;;;10164439;28;21205;-79
2023/07/24 19:02:42;;;;;;;0.38;0.28;;;;;;;;;;10128689;28;20631;-80
2023/07/24 19:07:43;;;;;;;0.47;0.47;;;;;;;;;;10128705;28;20227;-78
2023/07/24 19:12:44;;;;;;;0.35;0.35;;;;;;;;;;10120396;28;20224;-80
2023/07/24 19:17:45;;;;;;;0.30;0.30;;;;;;;;;;10122240;28;20597;-79
2023/07/24 19:22:46;;;;;;;0.25;0.25;;;;;;;;;;10109589;28;20234;-78
2023/07/24 19:27:47;;;;;;;1.10;0.65;;;;;;;;;;10115461;28;20658;-81
2023/07/24 19:32:48;;;;;;;3.20;0.22;;;;;;;;;;10126054;28;21102;-80
2023/07/24 19:37:49;;;;;;;0.22;0.22;;;;;;;;;;10116113;28;21592;-81
2023/07/24 19:42:50;;;;;;;0.43;0.43;;;;;;;;;;10108645;28;20220;-78
2023/07/24 19:47:52;;;;;;;0.30;0.30;;;;;;;;;;10125474;28;20236;-80
2023/07/24 19:52:53;;;;;;;0.40;0.40;;;;;;;;;;10107318;28;20331;-80
2023/07/24 19:57:54;;;;;;;1.05;0.45;;;;;;;;;;10107271;28;21173;-81
2023/07/24 20:02:55;;;;;;;1.20;0.30;;;;;;;;;;10104714;28;20837;-80
2023/07/24 20:07:56;;;;;;;0.28;0.28;;;;;;;;;;10124469;28;20224;-81
2023/07/24 20:12:57;;;;;;;0.38;0.35;;;;;;;;;;10159242;28;20227;-80
2023/07/24 20:17:58;;;;;;;0.40;0.40;;;;;;;;;;10126505;28;20227;-80
2023/07/24 20:22:59;;;;;;;0.90;0.30;;;;;;;;;;10130660;28;20212;-77
2023/07/24 20:28:00;;;;;;;0.20;0.20;;;;;;;;;;10155897;28;21824;-80
2023/07/24 20:33:01;;;;;;;0.43;0.43;;;;;;;;;;10139014;28;20591;-79
2023/07/24 20:38:06;;;;;;;0.30;0.30;;;;;;;;;;10146783;28;20358;-79
2023/07/24 20:43:08;;;;;;;0.25;0.25;;;;;;;;;;10145230;28;21025;-77
2023/07/24 20:48:09;;;;;;;1.95;0.40;;;;;;;;;;10153927;28;21481;-79
2023/07/24 20:53:10;;;;;;;0.40;0.40;;;;;;;;;;10149561;28;20329;-78
2023/07/24 20:58:11;;;;;;;0.30;0.30;;;;;;;;;;10157407;28;20259;-79
2023/07/24 21:03:12;;;;;;;0.38;0.38;;;;;;;;;;10126521;28;20770;-78
2023/07/24 21:08:14;;;;;;;1.42;0.30;;;;;;;;;;10145526;28;20595;-79
2023/07/24 21:13:15;;;;;;;0.30;0.30;;;;;;;;;;10141821;28;20639;-79
2023/07/24 21:18:17;;;;;;;0.47;0.25;;;;;;;;;;10140499;28;20865;-80
2023/07/24 21:23:18;;;;;;;5.97;0.82;;;;;;;;;;10135266;28;20261;-79
2023/07/24 21:28:20;;;;;;;0.70;0.70;;;;;;;;;;10147538;28;20374;-79
2023/07/24 21:33:21;;;;;;;0.40;0.40;;;;;;;;;;10163540;28;20220;-80
2023/07/24 21:38:22;;;;;;;0.40;0.40;;;;;;;;;;10134288;28;20220;-79
2023/07/24 21:43:24;;;;;;;4.68;0.93;;;;;;;;;;10144086;28;20922;-78
2023/07/24 21:48:25;;;;;;;0.80;0.80;;;;;;;;;;10134799;28;20227;-80
2023/07/24 21:53:26;;;;;;;0.50;0.50;;;;;;;;;;10152710;28;20252;-79
2023/07/24 21:58:29;;;;;;;0.50;0.50;;;;;;;;;;10159585;28;20230;-80
2023/07/24 22:03:30;;;;;;;0.47;0.47;;;;;;;;;;10154452;28;20219;-79
2023/07/24 22:08:32;;;;;;;2.92;1.10;;;;;;;;;;10144920;28;22218;-80
2023/07/24 22:13:33;;;;;;;0.80;0.40;;;;;;;;;;10120488;28;20918;-76
2023/07/24 22:18:35;;;;;;;0.40;0.40;;;;;;;;;;10138003;28;20315;-78
2023/07/24 22:23:36;;;;;;;3.50;0.77;;;;;;;;;;10130030;28;20586;-76
2023/07/24 22:28:37;;;;;;;1.73;1.05;;;;;;;;;;10146362;28;20310;-77
2023/07/24 22:33:38;;;;;;;0.75;0.75;;;;;;;;;;10142151;28;21058;-76
2023/07/24 22:38:39;;;;;;;0.57;0.57;;;;;;;;;;10155352;28;20739;-79
2023/07/24 22:43:40;;;;;;;0.70;0.70;;;;;;;;;;10129400;28;22397;-77
2023/07/24 22:48:41;;;;;;;0.60;0.60;;;;;;;;;;10147803;28;20565;-74
2023/07/24 22:53:43;;;;;;;0.90;0.90;;;;;;;;;;10145467;28;20901;-78
2023/07/24 22:58:59;;;;;;;0.80;0.80;;;;;;;;;;10159782;28;21093;-75
2023/07/24 23:04:00;;;;;;;1.20;1.20;;;;;;;;;;10149685;28;20881;-77
2023/07/24 23:09:01;;;;;;;1.92;0.77;;;;;;;;;;10159442;28;21899;-78
2023/07/24 23:14:02;;;;;;;0.70;0.70;;;;;;;;;;10144873;28;20982;-76
2023/07/24 23:19:03;;;;;;;6.18;1.00;;;;;;;;;;10142573;28;21082;-77
2023/07/24 23:24:04;;;;;;;0.50;0.50;;;;;;;;;;10155232;28;20682;-77
2023/07/24 23:29:05;;;;;;;2.13;0.60;;;;;;;;;;10141020;28;20870;-77
2023/07/24 23:34:06;;;;;;;1.65;0.70;;;;;;;;;;10139504;28;20880;-74
2023/07/24 23:39:07;;;;;;;2.92;1.10;;;;;;;;;;10152596;28;21499;-78
2023/07/24 23:44:09;;;;;;;7.53;1.17;;;;;;;;;;10144173;28;20243;-76
2023/07/24 23:49:10;;;;;;;0.90;0.90;;;;;;;;;;10120394;28;20216;-79
2023/07/24 23:54:11;;;;;;;3.60;1.05;;;;;;;;;;10145386;28;24098;-77
2023/07/24 23:59:12;;;;;;;0.90;0.90;;;;;;;;;;10143921;28;20223;-74
